sensor_id;sensor_type;location;lat;lon;timestamp;temperature;humidity
20398;DHT22;10358;49.590;11.030;2023-12-20T00:00:36;5.70;99.90
20398;DHT22;10358;49.590;11.030;2023-12-20T00:03:03;5.70;99.90
20398;DHT22;10358;49.590;11.030;2023-12-20T00:05:28;5.60;99.90
20398;DHT22;10358;49.590;11.030;2023-12-20T00:07:54;5.60;99.90
20398;DHT22;10358;49.590;11.030;2023-12-20T00:10:19;5.60;99.90
20398;DHT22;10358;49.590;11.030;2023-12-20T00:12:45;5.60;99.90
20398;DHT22;10358;49.590;11.030;2023-12-20T00:15:11;5.60;99.90
20398;DHT22;10358;49.590;11.030;2023-12-20T00:17:36;5.50;99.90
20398;DHT22;10358;49.590;11.030;2023-12-20T00:20:02;5.50;99.90
20398;DHT22;10358;49.590;11.030;2023-12-20T00:22:27;5.50;99.90
20398;DHT22;10358;49.590;11.030;2023-12-20T00:24:53;5.50;99.90
20398;DHT22;10358;49.590;11.030;2023-12-20T00:27:18;5.50;99.90
20398;DHT22;10358;49.590;11.030;2023-12-20T00:29:44;5.50;99.90
20398;DHT22;10358;49.590;11.030;2023-12-20T00:32:13;5.50;99.90
20398;DHT22;10358;49.590;11.030;2023-12-20T00:34:38;5.50;99.90
20398;DHT22;10358;49.590;11.030;2023-12-20T00:37:04;5.50;99.90
20398;DHT22;10358;49.590;11.030;2023-12-20T00:39:30;5.50;99.90
20398;DHT22;10358;49.590;11.030;2023-12-20T00:41:55;5.50;99.90
20398;DHT22;10358;49.590;11.030;2023-12-20T00:44:21;5.50;99.90
20398;DHT22;10358;49.590;11.030;2023-12-20T00:46:46;5.50;99.90
20398;DHT22;10358;49.590;11.030;2023-12-20T00:49:12;5.50;99.90
20398;DHT22;10358;49.590;11.030;2023-12-20T00:51:37;5.50;99.90
20398;DHT22;10358;49.590;11.030;2023-12-20T00:54:04;5.50;99.90
20398;DHT22;10358;49.590;11.030;2023-12-20T00:56:30;5.50;99.90
20398;DHT22;10358;49.590;11.030;2023-12-20T00:58:55;5.50;99.90
20398;DHT22;10358;49.590;11.030;2023-12-20T01:01:21;5.50;99.90
20398;DHT22;10358;49.590;11.030;2023-12-20T01:03:47;5.50;99.90
20398;DHT22;10358;49.590;11.030;2023-12-20T01:06:13;5.50;99.90
20398;DHT22;10358;49.590;11.030;2023-12-20T01:08:39;5.50;99.90
20398;DHT22;10358;49.590;11.030;2023-12-20T01:11:04;5.40;99.90
20398;DHT22;10358;49.590;11.030;2023-12-20T01:13:31;5.40;99.90
20398;DHT22;10358;49.590;11.030;2023-12-20T01:15:57;5.30;99.90
20398;DHT22;10358;49.590;11.030;2023-12-20T01:18:24;5.30;99.90
20398;DHT22;10358;49.590;11.030;2023-12-20T01:20:50;5.20;99.90
20398;DHT22;10358;49.590;11.030;2023-12-20T01:23:16;5.20;99.90
20398;DHT22;10358;49.590;11.030;2023-12-20T01:25:41;5.20;99.90
20398;DHT22;10358;49.590;11.030;2023-12-20T01:28:07;5.10;99.90
20398;DHT22;10358;49.590;11.030;2023-12-20T01:30:32;5.10;99.90
20398;DHT22;10358;49.590;11.030;2023-12-20T01:33:00;5.10;99.90
20398;DHT22;10358;49.590;11.030;2023-12-20T01:35:26;5.10;99.90
20398;DHT22;10358;49.590;11.030;2023-12-20T01:37:52;5.10;99.90
20398;DHT22;10358;49.590;11.030;2023-12-20T01:40:18;5.10;99.90
20398;DHT22;10358;49.590;11.030;2023-12-20T01:42:43;5.00;99.90
20398;DHT22;10358;49.590;11.030;2023-12-20T01:45:09;5.10;99.90
20398;DHT22;10358;49.590;11.030;2023-12-20T01:47:35;5.00;99.90
20398;DHT22;10358;49.590;11.030;2023-12-20T01:50:01;5.00;99.90
20398;DHT22;10358;49.590;11.030;2023-12-20T01:52:29;5.00;99.90
20398;DHT22;10358;49.590;11.030;2023-12-20T01:54:55;5.00;99.90
20398;DHT22;10358;49.590;11.030;2023-12-20T01:57:27;4.90;99.90
20398;DHT22;10358;49.590;11.030;2023-12-20T01:59:54;4.90;99.90
20398;DHT22;10358;49.590;11.030;2023-12-20T02:02:20;4.90;99.90
20398;DHT22;10358;49.590;11.030;2023-12-20T02:04:45;4.90;99.90
20398;DHT22;10358;49.590;11.030;2023-12-20T02:07:11;4.80;99.90
20398;DHT22;10358;49.590;11.030;2023-12-20T02:09:38;4.80;99.90
20398;DHT22;10358;49.590;11.030;2023-12-20T02:12:03;4.70;99.90
20398;DHT22;10358;49.590;11.030;2023-12-20T02:14:29;4.70;99.90
20398;DHT22;10358;49.590;11.030;2023-12-20T02:16:55;4.70;99.90
20398;DHT22;10358;49.590;11.030;2023-12-20T02:19:21;4.70;99.90
20398;DHT22;10358;49.590;11.030;2023-12-20T02:21:46;4.70;99.90
20398;DHT22;10358;49.590;11.030;2023-12-20T02:24:12;4.60;99.90
20398;DHT22;10358;49.590;11.030;2023-12-20T02:26:38;4.60;99.90
20398;DHT22;10358;49.590;11.030;2023-12-20T02:29:04;4.60;99.90
20398;DHT22;10358;49.590;11.030;2023-12-20T02:31:29;4.60;99.90
20398;DHT22;10358;49.590;11.030;2023-12-20T02:33:55;4.60;99.90
20398;DHT22;10358;49.590;11.030;2023-12-20T02:36:20;4.60;99.90
20398;DHT22;10358;49.590;11.030;2023-12-20T02:38:47;4.60;99.90
20398;DHT22;10358;49.590;11.030;2023-12-20T02:41:13;4.60;99.90
20398;DHT22;10358;49.590;11.030;2023-12-20T02:43:41;4.50;99.90
20398;DHT22;10358;49.590;11.030;2023-12-20T02:46:06;4.50;99.90
20398;DHT22;10358;49.590;11.030;2023-12-20T02:48:32;4.40;99.90
20398;DHT22;10358;49.590;11.030;2023-12-20T02:50:59;4.40;99.90
20398;DHT22;10358;49.590;11.030;2023-12-20T02:53:24;4.40;99.90
20398;DHT22;10358;49.590;11.030;2023-12-20T02:55:50;4.40;99.90
20398;DHT22;10358;49.590;11.030;2023-12-20T02:58:15;4.40;99.90
20398;DHT22;10358;49.590;11.030;2023-12-20T03:00:43;4.40;99.90
20398;DHT22;10358;49.590;11.030;2023-12-20T03:03:08;4.40;99.90
20398;DHT22;10358;49.590;11.030;2023-12-20T03:05:34;4.40;99.90
20398;DHT22;10358;49.590;11.030;2023-12-20T03:07:59;4.40;99.90
20398;DHT22;10358;49.590;11.030;2023-12-20T03:10:25;4.40;99.90
20398;DHT22;10358;49.590;11.030;2023-12-20T03:12:50;4.40;99.90
20398;DHT22;10358;49.590;11.030;2023-12-20T03:15:16;4.30;99.90
20398;DHT22;10358;49.590;11.030;2023-12-20T03:17:41;4.30;99.90
20398;DHT22;10358;49.590;11.030;2023-12-20T03:20:07;4.30;99.90
20398;DHT22;10358;49.590;11.030;2023-12-20T03:22:34;4.30;99.90
20398;DHT22;10358;49.590;11.030;2023-12-20T03:25:00;4.30;99.90
20398;DHT22;10358;49.590;11.030;2023-12-20T03:27:26;4.30;99.90
20398;DHT22;10358;49.590;11.030;2023-12-20T03:29:51;4.30;99.90
20398;DHT22;10358;49.590;11.030;2023-12-20T03:32:17;4.30;99.90
20398;DHT22;10358;49.590;11.030;2023-12-20T03:34:42;4.30;99.90
20398;DHT22;10358;49.590;11.030;2023-12-20T03:37:08;4.30;99.90
20398;DHT22;10358;49.590;11.030;2023-12-20T03:39:33;4.30;99.90
20398;DHT22;10358;49.590;11.030;2023-12-20T03:41:59;4.30;99.90
20398;DHT22;10358;49.590;11.030;2023-12-20T03:44:24;4.30;99.90
20398;DHT22;10358;49.590;11.030;2023-12-20T03:46:50;4.30;99.90
20398;DHT22;10358;49.590;11.030;2023-12-20T03:49:15;4.30;99.90
20398;DHT22;10358;49.590;11.030;2023-12-20T03:51:41;4.30;99.90
20398;DHT22;10358;49.590;11.030;2023-12-20T03:54:08;4.30;99.90
20398;DHT22;10358;49.590;11.030;2023-12-20T03:56:33;4.30;99.90
20398;DHT22;10358;49.590;11.030;2023-12-20T03:58:59;4.30;99.90
20398;DHT22;10358;49.590;11.030;2023-12-20T04:01:24;4.30;99.90
20398;DHT22;10358;49.590;11.030;2023-12-20T04:03:50;4.20;99.90
20398;DHT22;10358;49.590;11.030;2023-12-20T04:06:18;4.20;99.90
20398;DHT22;10358;49.590;11.030;2023-12-20T04:08:44;4.20;99.90
20398;DHT22;10358;49.590;11.030;2023-12-20T04:11:09;4.20;99.90
20398;DHT22;10358;49.590;11.030;2023-12-20T04:13:35;4.20;99.90
20398;DHT22;10358;49.590;11.030;2023-12-20T04:16:00;4.10;99.90
20398;DHT22;10358;49.590;11.030;2023-12-20T04:18:26;4.20;99.90
20398;DHT22;10358;49.590;11.030;2023-12-20T04:20:53;4.20;99.90
20398;DHT22;10358;49.590;11.030;2023-12-20T04:23:19;4.10;99.90
20398;DHT22;10358;49.590;11.030;2023-12-20T04:25:44;4.10;99.90
20398;DHT22;10358;49.590;11.030;2023-12-20T04:28:10;4.20;99.90
20398;DHT22;10358;49.590;11.030;2023-12-20T04:30:35;4.20;99.90
20398;DHT22;10358;49.590;11.030;2023-12-20T04:33:01;4.10;99.90
20398;DHT22;10358;49.590;11.030;2023-12-20T04:35:27;4.20;99.90
20398;DHT22;10358;49.590;11.030;2023-12-20T04:37:53;4.10;99.90
20398;DHT22;10358;49.590;11.030;2023-12-20T04:40:18;4.10;99.90
20398;DHT22;10358;49.590;11.030;2023-12-20T04:42:44;4.10;99.90
20398;DHT22;10358;49.590;11.030;2023-12-20T04:45:09;4.10;99.90
20398;DHT22;10358;49.590;11.030;2023-12-20T04:47:37;4.10;99.90
20398;DHT22;10358;49.590;11.030;2023-12-20T04:50:03;4.20;99.90
20398;DHT22;10358;49.590;11.030;2023-12-20T04:52:29;4.10;99.90
20398;DHT22;10358;49.590;11.030;2023-12-20T04:54:55;4.10;99.90
20398;DHT22;10358;49.590;11.030;2023-12-20T04:57:21;4.20;99.90
20398;DHT22;10358;49.590;11.030;2023-12-20T04:59:47;4.20;99.90
20398;DHT22;10358;49.590;11.030;2023-12-20T05:02:12;4.10;99.90
20398;DHT22;10358;49.590;11.030;2023-12-20T05:04:38;4.10;99.90
20398;DHT22;10358;49.590;11.030;2023-12-20T05:07:03;4.10;99.90
20398;DHT22;10358;49.590;11.030;2023-12-20T05:09:31;4.10;99.90
20398;DHT22;10358;49.590;11.030;2023-12-20T05:11:57;4.10;99.90
20398;DHT22;10358;49.590;11.030;2023-12-20T05:14:22;4.10;99.90
20398;DHT22;10358;49.590;11.030;2023-12-20T05:16:48;4.20;99.90
20398;DHT22;10358;49.590;11.030;2023-12-20T05:19:13;4.20;99.90
20398;DHT22;10358;49.590;11.030;2023-12-20T05:21:39;4.10;99.90
20398;DHT22;10358;49.590;11.030;2023-12-20T05:24:05;4.20;99.90
20398;DHT22;10358;49.590;11.030;2023-12-20T05:26:30;4.20;99.90
20398;DHT22;10358;49.590;11.030;2023-12-20T05:28:56;4.10;99.90
20398;DHT22;10358;49.590;11.030;2023-12-20T05:31:22;4.20;99.90
20398;DHT22;10358;49.590;11.030;2023-12-20T05:33:47;4.20;99.90
20398;DHT22;10358;49.590;11.030;2023-12-20T05:36:14;4.20;99.90
20398;DHT22;10358;49.590;11.030;2023-12-20T05:38:40;4.10;99.90
20398;DHT22;10358;49.590;11.030;2023-12-20T05:41:08;4.20;99.90
20398;DHT22;10358;49.590;11.030;2023-12-20T05:43:33;4.20;99.90
20398;DHT22;10358;49.590;11.030;2023-12-20T05:45:59;4.20;99.90
20398;DHT22;10358;49.590;11.030;2023-12-20T05:48:25;4.20;99.90
20398;DHT22;10358;49.590;11.030;2023-12-20T05:50:50;4.20;99.90
20398;DHT22;10358;49.590;11.030;2023-12-20T05:53:16;4.20;99.90
20398;DHT22;10358;49.590;11.030;2023-12-20T05:55:41;4.20;99.90
20398;DHT22;10358;49.590;11.030;2023-12-20T05:58:07;4.30;99.90
20398;DHT22;10358;49.590;11.030;2023-12-20T06:00:32;4.30;99.90
20398;DHT22;10358;49.590;11.030;2023-12-20T06:02:59;4.30;99.90
20398;DHT22;10358;49.590;11.030;2023-12-20T06:05:24;4.30;99.90
20398;DHT22;10358;49.590;11.030;2023-12-20T06:07:50;4.30;99.90
20398;DHT22;10358;49.590;11.030;2023-12-20T06:10:16;4.30;99.90
20398;DHT22;10358;49.590;11.030;2023-12-20T06:12:42;4.30;99.90
20398;DHT22;10358;49.590;11.030;2023-12-20T06:15:07;4.30;99.90
20398;DHT22;10358;49.590;11.030;2023-12-20T06:17:33;4.30;99.90
20398;DHT22;10358;49.590;11.030;2023-12-20T06:20:00;4.30;99.90
20398;DHT22;10358;49.590;11.030;2023-12-20T06:22:26;4.40;99.90
20398;DHT22;10358;49.590;11.030;2023-12-20T06:24:52;4.30;99.90
20398;DHT22;10358;49.590;11.030;2023-12-20T06:27:17;4.30;99.90
20398;DHT22;10358;49.590;11.030;2023-12-20T06:29:43;4.30;99.90
20398;DHT22;10358;49.590;11.030;2023-12-20T06:32:10;4.30;99.90
20398;DHT22;10358;49.590;11.030;2023-12-20T06:34:35;4.30;99.90
20398;DHT22;10358;49.590;11.030;2023-12-20T06:37:01;4.30;99.90
20398;DHT22;10358;49.590;11.030;2023-12-20T06:39:27;4.30;99.90
20398;DHT22;10358;49.590;11.030;2023-12-20T06:41:53;4.40;99.90
20398;DHT22;10358;49.590;11.030;2023-12-20T06:44:18;4.40;99.90
20398;DHT22;10358;49.590;11.030;2023-12-20T06:46:44;4.40;99.90
20398;DHT22;10358;49.590;11.030;2023-12-20T06:49:10;4.40;99.90
20398;DHT22;10358;49.590;11.030;2023-12-20T06:51:37;4.40;99.90
20398;DHT22;10358;49.590;11.030;2023-12-20T06:54:02;4.40;99.90
20398;DHT22;10358;49.590;11.030;2023-12-20T06:56:28;4.50;99.90
20398;DHT22;10358;49.590;11.030;2023-12-20T06:58:54;4.50;99.90
20398;DHT22;10358;49.590;11.030;2023-12-20T07:01:19;4.50;99.90
20398;DHT22;10358;49.590;11.030;2023-12-20T07:03:45;4.50;99.90
20398;DHT22;10358;49.590;11.030;2023-12-20T07:06:11;4.50;99.90
20398;DHT22;10358;49.590;11.030;2023-12-20T07:08:36;4.50;99.90
20398;DHT22;10358;49.590;11.030;2023-12-20T07:11:02;4.60;99.90
20398;DHT22;10358;49.590;11.030;2023-12-20T07:13:27;4.50;99.90
20398;DHT22;10358;49.590;11.030;2023-12-20T07:15:53;4.50;99.90
20398;DHT22;10358;49.590;11.030;2023-12-20T07:18:18;4.50;99.90
20398;DHT22;10358;49.590;11.030;2023-12-20T07:20:44;4.50;99.90
20398;DHT22;10358;49.590;11.030;2023-12-20T07:23:09;4.50;99.90
20398;DHT22;10358;49.590;11.030;2023-12-20T07:25:35;4.50;99.90
20398;DHT22;10358;49.590;11.030;2023-12-20T07:28:01;4.50;99.90
20398;DHT22;10358;49.590;11.030;2023-12-20T07:30:26;4.50;99.90
20398;DHT22;10358;49.590;11.030;2023-12-20T07:32:52;4.50;99.90
20398;DHT22;10358;49.590;11.030;2023-12-20T07:35:18;4.50;99.90
20398;DHT22;10358;49.590;11.030;2023-12-20T07:37:44;4.50;99.90
20398;DHT22;10358;49.590;11.030;2023-12-20T07:40:10;4.50;99.90
20398;DHT22;10358;49.590;11.030;2023-12-20T07:42:35;4.50;99.90
20398;DHT22;10358;49.590;11.030;2023-12-20T07:45:01;4.50;99.90
20398;DHT22;10358;49.590;11.030;2023-12-20T07:47:27;4.60;99.90
20398;DHT22;10358;49.590;11.030;2023-12-20T07:49:52;4.50;99.90
20398;DHT22;10358;49.590;11.030;2023-12-20T07:52:18;4.50;99.90
20398;DHT22;10358;49.590;11.030;2023-12-20T07:54:44;4.60;99.90
20398;DHT22;10358;49.590;11.030;2023-12-20T07:57:11;4.60;99.90
20398;DHT22;10358;49.590;11.030;2023-12-20T07:59:37;4.60;99.90
20398;DHT22;10358;49.590;11.030;2023-12-20T08:02:02;4.60;99.90
20398;DHT22;10358;49.590;11.030;2023-12-20T08:04:30;4.60;99.90
20398;DHT22;10358;49.590;11.030;2023-12-20T08:06:55;4.60;99.90
20398;DHT22;10358;49.590;11.030;2023-12-20T08:09:22;4.70;99.90
20398;DHT22;10358;49.590;11.030;2023-12-20T08:11:48;4.80;99.90
20398;DHT22;10358;49.590;11.030;2023-12-20T08:14:14;4.80;99.90
20398;DHT22;10358;49.590;11.030;2023-12-20T08:16:40;4.80;99.90
20398;DHT22;10358;49.590;11.030;2023-12-20T08:19:05;4.80;99.90
20398;DHT22;10358;49.590;11.030;2023-12-20T08:21:32;4.80;99.90
20398;DHT22;10358;49.590;11.030;2023-12-20T08:23:57;4.90;99.90
20398;DHT22;10358;49.590;11.030;2023-12-20T08:26:23;4.80;99.90
20398;DHT22;10358;49.590;11.030;2023-12-20T08:28:49;4.90;99.90
20398;DHT22;10358;49.590;11.030;2023-12-20T08:31:16;4.90;99.90
20398;DHT22;10358;49.590;11.030;2023-12-20T08:33:44;4.90;99.90
20398;DHT22;10358;49.590;11.030;2023-12-20T08:36:09;4.90;99.90
20398;DHT22;10358;49.590;11.030;2023-12-20T08:38:35;4.80;99.90
20398;DHT22;10358;49.590;11.030;2023-12-20T08:41:01;4.80;99.90
20398;DHT22;10358;49.590;11.030;2023-12-20T08:43:30;4.80;99.90
20398;DHT22;10358;49.590;11.030;2023-12-20T08:45:56;4.80;99.90
20398;DHT22;10358;49.590;11.030;2023-12-20T08:48:22;4.80;99.90
20398;DHT22;10358;49.590;11.030;2023-12-20T08:50:48;4.80;99.90
20398;DHT22;10358;49.590;11.030;2023-12-20T08:53:15;4.80;99.90
20398;DHT22;10358;49.590;11.030;2023-12-20T08:55:42;4.80;99.90
20398;DHT22;10358;49.590;11.030;2023-12-20T08:58:07;4.80;99.90
20398;DHT22;10358;49.590;11.030;2023-12-20T09:00:34;4.80;99.90
20398;DHT22;10358;49.590;11.030;2023-12-20T09:02:59;4.80;99.90
20398;DHT22;10358;49.590;11.030;2023-12-20T09:05:25;4.80;99.90
20398;DHT22;10358;49.590;11.030;2023-12-20T09:07:50;4.80;99.90
20398;DHT22;10358;49.590;11.030;2023-12-20T09:10:17;4.80;99.90
20398;DHT22;10358;49.590;11.030;2023-12-20T09:12:48;4.80;99.90
20398;DHT22;10358;49.590;11.030;2023-12-20T09:15:14;4.90;99.90
20398;DHT22;10358;49.590;11.030;2023-12-20T09:17:40;4.90;99.90
20398;DHT22;10358;49.590;11.030;2023-12-20T09:20:07;4.90;99.90
20398;DHT22;10358;49.590;11.030;2023-12-20T09:22:33;5.00;99.90
20398;DHT22;10358;49.590;11.030;2023-12-20T09:25:00;5.00;99.90
20398;DHT22;10358;49.590;11.030;2023-12-20T09:27:27;5.00;99.90
20398;DHT22;10358;49.590;11.030;2023-12-20T09:29:52;5.00;99.90
20398;DHT22;10358;49.590;11.030;2023-12-20T09:32:18;5.10;99.90
20398;DHT22;10358;49.590;11.030;2023-12-20T09:34:47;5.10;99.90
20398;DHT22;10358;49.590;11.030;2023-12-20T09:37:13;5.10;99.90
20398;DHT22;10358;49.590;11.030;2023-12-20T09:39:38;5.10;99.90
20398;DHT22;10358;49.590;11.030;2023-12-20T09:42:05;5.20;99.90
20398;DHT22;10358;49.590;11.030;2023-12-20T09:44:33;5.20;99.90
20398;DHT22;10358;49.590;11.030;2023-12-20T09:47:02;5.30;99.90
20398;DHT22;10358;49.590;11.030;2023-12-20T09:49:28;5.40;99.90
20398;DHT22;10358;49.590;11.030;2023-12-20T09:51:55;5.50;99.90
20398;DHT22;10358;49.590;11.030;2023-12-20T09:54:22;5.60;99.90
20398;DHT22;10358;49.590;11.030;2023-12-20T09:56:48;5.70;99.90
20398;DHT22;10358;49.590;11.030;2023-12-20T09:59:14;5.70;99.90
20398;DHT22;10358;49.590;11.030;2023-12-20T10:01:41;5.60;99.90
20398;DHT22;10358;49.590;11.030;2023-12-20T10:04:08;5.60;99.90
20398;DHT22;10358;49.590;11.030;2023-12-20T10:06:44;5.60;99.90
20398;DHT22;10358;49.590;11.030;2023-12-20T10:09:11;5.70;99.90
20398;DHT22;10358;49.590;11.030;2023-12-20T10:11:37;5.70;99.90
20398;DHT22;10358;49.590;11.030;2023-12-20T10:14:03;5.60;99.90
20398;DHT22;10358;49.590;11.030;2023-12-20T10:16:30;5.70;99.90
20398;DHT22;10358;49.590;11.030;2023-12-20T10:18:57;5.70;99.90
20398;DHT22;10358;49.590;11.030;2023-12-20T10:21:23;5.70;99.90
20398;DHT22;10358;49.590;11.030;2023-12-20T10:23:55;5.80;99.90
20398;DHT22;10358;49.590;11.030;2023-12-20T10:26:22;5.80;99.90
20398;DHT22;10358;49.590;11.030;2023-12-20T10:28:55;5.80;99.90
20398;DHT22;10358;49.590;11.030;2023-12-20T10:31:31;5.80;99.90
20398;DHT22;10358;49.590;11.030;2023-12-20T10:33:58;5.80;99.90
20398;DHT22;10358;49.590;11.030;2023-12-20T10:36:25;5.80;99.90
20398;DHT22;10358;49.590;11.030;2023-12-20T10:38:52;5.80;99.90
20398;DHT22;10358;49.590;11.030;2023-12-20T10:41:26;5.80;99.90
20398;DHT22;10358;49.590;11.030;2023-12-20T10:44:00;5.80;99.90
20398;DHT22;10358;49.590;11.030;2023-12-20T10:46:27;5.80;99.90
20398;DHT22;10358;49.590;11.030;2023-12-20T10:48:54;5.80;99.90
20398;DHT22;10358;49.590;11.030;2023-12-20T10:51:21;5.90;99.90
20398;DHT22;10358;49.590;11.030;2023-12-20T10:53:48;5.90;99.90
20398;DHT22;10358;49.590;11.030;2023-12-20T10:56:16;5.90;99.90
20398;DHT22;10358;49.590;11.030;2023-12-20T10:58:43;5.90;99.90
20398;DHT22;10358;49.590;11.030;2023-12-20T11:01:13;5.90;99.90
20398;DHT22;10358;49.590;11.030;2023-12-20T11:03:48;5.90;99.90
20398;DHT22;10358;49.590;11.030;2023-12-20T11:06:27;6.00;99.90
20398;DHT22;10358;49.590;11.030;2023-12-20T11:09:17;6.10;99.90
20398;DHT22;10358;49.590;11.030;2023-12-20T11:12:18;6.10;99.90
20398;DHT22;10358;49.590;11.030;2023-12-20T11:14:50;6.10;99.90
20398;DHT22;10358;49.590;11.030;2023-12-20T11:17:16;6.20;99.90
20398;DHT22;10358;49.590;11.030;2023-12-20T11:22:18;6.20;99.90
20398;DHT22;10358;49.590;11.030;2023-12-20T11:24:44;6.20;99.90
20398;DHT22;10358;49.590;11.030;2023-12-20T11:27:13;6.20;99.90
20398;DHT22;10358;49.590;11.030;2023-12-20T11:29:38;6.20;99.90
20398;DHT22;10358;49.590;11.030;2023-12-20T11:34:51;6.20;99.90
20398;DHT22;10358;49.590;11.030;2023-12-20T11:37:19;6.20;99.90
20398;DHT22;10358;49.590;11.030;2023-12-20T11:39:45;6.20;99.90
20398;DHT22;10358;49.590;11.030;2023-12-20T11:42:11;6.10;99.90
20398;DHT22;10358;49.590;11.030;2023-12-20T11:44:37;6.20;99.90
20398;DHT22;10358;49.590;11.030;2023-12-20T11:47:03;6.10;99.90
20398;DHT22;10358;49.590;11.030;2023-12-20T11:49:29;6.10;99.90
20398;DHT22;10358;49.590;11.030;2023-12-20T11:51:56;6.10;99.90
20398;DHT22;10358;49.590;11.030;2023-12-20T11:54:22;6.20;99.90
20398;DHT22;10358;49.590;11.030;2023-12-20T11:56:48;6.20;99.90
20398;DHT22;10358;49.590;11.030;2023-12-20T11:59:13;6.20;99.90
20398;DHT22;10358;49.590;11.030;2023-12-20T12:01:39;6.30;99.90
20398;DHT22;10358;49.590;11.030;2023-12-20T12:04:05;6.30;99.90
20398;DHT22;10358;49.590;11.030;2023-12-20T12:06:31;6.30;99.90
20398;DHT22;10358;49.590;11.030;2023-12-20T12:08:57;6.30;99.90
20398;DHT22;10358;49.590;11.030;2023-12-20T12:11:23;6.30;99.90
20398;DHT22;10358;49.590;11.030;2023-12-20T12:13:49;6.20;99.90
20398;DHT22;10358;49.590;11.030;2023-12-20T12:16:21;6.20;99.90
20398;DHT22;10358;49.590;11.030;2023-12-20T12:18:54;6.20;99.90
20398;DHT22;10358;49.590;11.030;2023-12-20T12:21:20;6.20;99.90
20398;DHT22;10358;49.590;11.030;2023-12-20T12:23:46;6.20;99.90
20398;DHT22;10358;49.590;11.030;2023-12-20T12:26:12;6.20;99.90
20398;DHT22;10358;49.590;11.030;2023-12-20T12:28:40;6.20;99.90
20398;DHT22;10358;49.590;11.030;2023-12-20T12:31:07;6.20;99.90
20398;DHT22;10358;49.590;11.030;2023-12-20T12:33:34;6.20;99.90
20398;DHT22;10358;49.590;11.030;2023-12-20T12:36:00;6.30;99.90
20398;DHT22;10358;49.590;11.030;2023-12-20T12:38:26;6.30;99.90
20398;DHT22;10358;49.590;11.030;2023-12-20T12:40:54;6.30;99.90
20398;DHT22;10358;49.590;11.030;2023-12-20T12:43:20;6.30;99.90
20398;DHT22;10358;49.590;11.030;2023-12-20T12:45:48;6.20;99.90
20398;DHT22;10358;49.590;11.030;2023-12-20T12:48:14;6.20;99.90
20398;DHT22;10358;49.590;11.030;2023-12-20T12:50:40;6.20;99.90
20398;DHT22;10358;49.590;11.030;2023-12-20T12:53:05;6.20;99.90
20398;DHT22;10358;49.590;11.030;2023-12-20T12:55:31;6.20;99.90
20398;DHT22;10358;49.590;11.030;2023-12-20T12:57:56;6.20;99.90
20398;DHT22;10358;49.590;11.030;2023-12-20T13:00:22;6.20;99.90
20398;DHT22;10358;49.590;11.030;2023-12-20T13:02:48;6.20;99.90
20398;DHT22;10358;49.590;11.030;2023-12-20T13:05:13;6.10;99.90
20398;DHT22;10358;49.590;11.030;2023-12-20T13:07:39;6.20;99.90
20398;DHT22;10358;49.590;11.030;2023-12-20T13:10:05;6.10;99.90
20398;DHT22;10358;49.590;11.030;2023-12-20T13:12:31;6.10;99.90
20398;DHT22;10358;49.590;11.030;2023-12-20T13:14:57;6.10;99.90
20398;DHT22;10358;49.590;11.030;2023-12-20T13:17:23;6.00;99.90
20398;DHT22;10358;49.590;11.030;2023-12-20T13:19:49;5.90;99.90
20398;DHT22;10358;49.590;11.030;2023-12-20T13:22:15;5.70;99.90
20398;DHT22;10358;49.590;11.030;2023-12-20T13:24:40;5.70;99.90
20398;DHT22;10358;49.590;11.030;2023-12-20T13:27:06;5.60;99.90
20398;DHT22;10358;49.590;11.030;2023-12-20T13:29:32;5.60;99.90
20398;DHT22;10358;49.590;11.030;2023-12-20T13:31:57;5.60;99.90
20398;DHT22;10358;49.590;11.030;2023-12-20T13:34:23;5.60;99.90
20398;DHT22;10358;49.590;11.030;2023-12-20T13:36:49;5.60;99.90
20398;DHT22;10358;49.590;11.030;2023-12-20T13:39:16;5.60;99.90
20398;DHT22;10358;49.590;11.030;2023-12-20T13:41:42;5.70;99.90
20398;DHT22;10358;49.590;11.030;2023-12-20T13:44:09;5.60;99.90
20398;DHT22;10358;49.590;11.030;2023-12-20T13:46:36;5.60;99.90
20398;DHT22;10358;49.590;11.030;2023-12-20T13:49:02;5.60;99.90
20398;DHT22;10358;49.590;11.030;2023-12-20T13:51:27;5.60;99.90
20398;DHT22;10358;49.590;11.030;2023-12-20T13:53:53;5.60;99.90
20398;DHT22;10358;49.590;11.030;2023-12-20T13:56:19;5.60;99.90
20398;DHT22;10358;49.590;11.030;2023-12-20T13:58:45;5.60;99.90
20398;DHT22;10358;49.590;11.030;2023-12-20T14:01:12;5.60;99.90
20398;DHT22;10358;49.590;11.030;2023-12-20T14:03:38;5.60;99.90
20398;DHT22;10358;49.590;11.030;2023-12-20T14:06:03;5.70;99.90
20398;DHT22;10358;49.590;11.030;2023-12-20T14:08:29;5.60;99.90
20398;DHT22;10358;49.590;11.030;2023-12-20T14:10:55;5.60;99.90
20398;DHT22;10358;49.590;11.030;2023-12-20T14:13:20;5.60;99.90
20398;DHT22;10358;49.590;11.030;2023-12-20T14:15:46;5.60;99.90
20398;DHT22;10358;49.590;11.030;2023-12-20T14:18:12;5.60;99.90
20398;DHT22;10358;49.590;11.030;2023-12-20T14:20:40;5.60;99.90
20398;DHT22;10358;49.590;11.030;2023-12-20T14:23:07;5.60;99.90
20398;DHT22;10358;49.590;11.030;2023-12-20T14:25:34;5.60;99.90
20398;DHT22;10358;49.590;11.030;2023-12-20T14:28:03;5.60;99.90
20398;DHT22;10358;49.590;11.030;2023-12-20T14:30:28;5.60;99.90
20398;DHT22;10358;49.590;11.030;2023-12-20T14:32:54;5.60;99.90
20398;DHT22;10358;49.590;11.030;2023-12-20T14:35:19;5.60;99.90
20398;DHT22;10358;49.590;11.030;2023-12-20T14:37:45;5.60;99.90
20398;DHT22;10358;49.590;11.030;2023-12-20T14:40:12;5.60;99.90
20398;DHT22;10358;49.590;11.030;2023-12-20T14:42:42;5.60;99.90
20398;DHT22;10358;49.590;11.030;2023-12-20T14:45:08;5.60;99.90
20398;DHT22;10358;49.590;11.030;2023-12-20T14:47:34;5.60;99.90
20398;DHT22;10358;49.590;11.030;2023-12-20T14:50:03;5.50;99.90
20398;DHT22;10358;49.590;11.030;2023-12-20T14:52:30;5.50;99.90
20398;DHT22;10358;49.590;11.030;2023-12-20T14:54:56;5.50;99.90
20398;DHT22;10358;49.590;11.030;2023-12-20T14:57:21;5.50;99.90
20398;DHT22;10358;49.590;11.030;2023-12-20T14:59:47;5.50;99.90
20398;DHT22;10358;49.590;11.030;2023-12-20T15:02:12;5.40;99.90
20398;DHT22;10358;49.590;11.030;2023-12-20T15:04:38;5.40;99.90
20398;DHT22;10358;49.590;11.030;2023-12-20T15:07:04;5.40;99.90
20398;DHT22;10358;49.590;11.030;2023-12-20T15:09:31;5.40;99.90
20398;DHT22;10358;49.590;11.030;2023-12-20T15:11:57;5.30;99.90
20398;DHT22;10358;49.590;11.030;2023-12-20T15:14:22;5.30;99.90
20398;DHT22;10358;49.590;11.030;2023-12-20T15:16:48;5.30;99.90
20398;DHT22;10358;49.590;11.030;2023-12-20T15:19:14;5.20;99.90
20398;DHT22;10358;49.590;11.030;2023-12-20T15:21:40;5.20;99.90
20398;DHT22;10358;49.590;11.030;2023-12-20T15:24:08;5.20;99.90
20398;DHT22;10358;49.590;11.030;2023-12-20T15:26:43;5.20;99.90
20398;DHT22;10358;49.590;11.030;2023-12-20T15:29:09;5.20;99.90